Time;durP1;ratioP1;P1;durP2;ratioP2;P2;SDS_P1;SDS_P2;PMS_P1;PMS_P2;Temp;Humidity;BMP_temperature;BMP_pressure;BME280_temperature;BME280_humidity;BME280_pressure;Samples;Min_cycle;Max_cycle;Signal;HPM_P1;HPM_P2
2022/01/22 00:00:25;;;;;;;2.40;1.60;;;16.10;91.20;;;;;;1996848;28;20704;-66
2022/01/22 00:01:24;;;;;;;3.65;1.88;;;16.10;91.50;;;;;;1997230;28;20178;-66
2022/01/22 00:02:22;;;;;;;2.40;1.37;;;16.10;91.20;;;;;;1996614;28;20178;-66
2022/01/22 00:03:21;;;;;;;2.70;2.07;;;16.10;91.30;;;;;;1996875;28;20182;-66
2022/01/22 00:04:19;;;;;;;3.00;1.70;;;16.10;91.20;;;;;;1996160;28;20229;-66
2022/01/22 00:05:20;;;;;;;1.83;1.40;;;16.10;91.20;;;;;;1996567;28;20196;-66
2022/01/22 00:06:18;;;;;;;3.25;1.70;;;16.10;91.50;;;;;;1989201;28;20170;-66
2022/01/22 00:07:17;;;;;;;5.20;1.63;;;16.10;91.20;;;;;;1995574;28;20185;-66
2022/01/22 00:08:17;;;;;;;3.63;1.70;;;16.10;91.20;;;;;;1996863;28;20254;-66
2022/01/22 00:09:15;;;;;;;3.13;1.70;;;16.10;91.20;;;;;;1996941;28;20652;-66
2022/01/22 00:10:16;;;;;;;2.20;1.83;;;16.10;91.20;;;;;;1996869;28;20212;-66
2022/01/22 00:11:15;;;;;;;2.53;1.70;;;16.10;91.10;;;;;;1996769;28;20248;-66
2022/01/22 00:12:25;;;;;;;3.17;2.10;;;16.00;91.10;;;;;;1996213;28;20189;-66
2022/01/22 00:14:42;;;;;;;4.82;2.10;;;16.00;91.20;;;;;;1995913;28;20174;-66
2022/01/22 00:15:42;;;;;;;2.63;1.90;;;16.00;91.20;;;;;;1996293;28;20201;-66
2022/01/22 00:16:41;;;;;;;5.30;2.40;;;16.00;91.30;;;;;;1996952;28;20213;-66
2022/01/22 00:17:40;;;;;;;3.70;2.00;;;16.00;91.40;;;;;;1996503;28;20188;-66
2022/01/22 00:18:40;;;;;;;2.75;1.77;;;16.00;91.40;;;;;;1996957;28;20408;-66
2022/01/22 00:19:38;;;;;;;3.85;2.13;;;15.90;91.30;;;;;;1996304;28;20232;-66
2022/01/22 00:20:37;;;;;;;5.17;2.23;;;16.00;91.40;;;;;;1996840;28;20173;-66
2022/01/22 00:21:36;;;;;;;3.30;2.10;;;16.00;91.50;;;;;;1997426;28;20174;-75
2022/01/22 00:22:36;;;;;;;5.50;2.50;;;16.00;91.50;;;;;;1997426;28;20513;-75
2022/01/22 00:23:39;;;;;;;4.28;2.35;;;15.90;91.50;;;;;;1997302;28;20193;-74
2022/01/22 00:24:39;;;;;;;7.50;3.15;;;15.90;91.60;;;;;;1997314;28;20594;-74
2022/01/22 00:25:37;;;;;;;3.60;2.10;;;15.80;91.70;;;;;;1996543;28;20640;-74
2022/01/22 00:26:36;;;;;;;2.77;2.07;;;15.80;91.70;;;;;;1996238;28;20216;-74
2022/01/22 00:27:40;;;;;;;3.27;2.53;;;15.70;91.70;;;;;;1997236;28;20170;-74
2022/01/22 00:28:38;;;;;;;3.83;2.83;;;15.70;91.70;;;;;;1997465;28;20241;-73
2022/01/22 00:29:37;;;;;;;5.63;3.00;;;15.70;91.80;;;;;;1997645;28;20174;-74
2022/01/22 00:30:35;;;;;;;5.23;2.10;;;15.70;91.90;;;;;;1996764;28;20180;-74
2022/01/22 00:31:34;;;;;;;3.60;2.73;;;15.70;92.10;;;;;;1997437;28;20219;-74
2022/01/22 00:32:36;;;;;;;3.50;2.17;;;15.70;91.90;;;;;;1997453;28;20181;-73
2022/01/22 00:33:34;;;;;;;6.60;2.72;;;15.60;92.00;;;;;;1989052;28;20206;-74
2022/01/22 00:34:34;;;;;;;3.00;2.37;;;15.60;91.90;;;;;;1981414;29;20187;-74
2022/01/22 00:35:33;;;;;;;3.17;2.13;;;15.70;92.20;;;;;;1996002;28;20169;-74
2022/01/22 00:36:32;;;;;;;3.13;2.13;;;15.70;91.90;;;;;;1996952;28;20734;-74
2022/01/22 00:37:30;;;;;;;4.97;3.30;;;15.70;91.90;;;;;;1997105;28;20438;-74
2022/01/22 00:38:29;;;;;;;3.70;2.30;;;15.60;91.80;;;;;;1997022;28;20221;-73
2022/01/22 00:39:27;;;;;;;4.83;2.50;;;15.70;91.90;;;;;;1996505;28;20318;-75
2022/01/22 00:40:26;;;;;;;3.00;2.23;;;15.70;91.90;;;;;;1996602;28;20170;-74
2022/01/22 00:41:25;;;;;;;6.53;2.40;;;15.70;92.20;;;;;;1996818;28;20317;-75
2022/01/22 00:42:24;;;;;;;2.80;2.00;;;15.70;91.90;;;;;;1997139;28;20599;-74
2022/01/22 00:43:23;;;;;;;3.35;2.40;;;15.70;91.90;;;;;;1996896;28;20653;-72
2022/01/22 00:44:22;;;;;;;3.77;2.30;;;15.70;91.90;;;;;;1997171;28;20193;-73
2022/01/22 00:45:20;;;;;;;3.70;2.63;;;15.70;91.90;;;;;;1998696;28;20208;-72
2022/01/22 00:46:19;;;;;;;4.10;2.90;;;15.70;91.90;;;;;;2000913;28;20630;-72
2022/01/22 00:47:21;;;;;;;3.33;2.73;;;15.70;91.80;;;;;;1998768;28;20475;-72
2022/01/22 00:48:20;;;;;;;2.92;2.30;;;15.70;91.90;;;;;;2001690;28;20440;-72
2022/01/22 00:49:19;;;;;;;4.40;2.37;;;15.70;92.00;;;;;;2001170;28;20540;-72
2022/01/22 00:50:22;;;;;;;4.75;2.78;;;15.70;91.90;;;;;;2000690;28;20245;-71
2022/01/22 00:51:20;;;;;;;3.83;2.35;;;15.80;91.90;;;;;;1992671;28;20190;-73
2022/01/22 00:52:19;;;;;;;4.87;2.60;;;15.70;91.90;;;;;;2002654;28;20178;-72
2022/01/22 00:53:18;;;;;;;6.23;2.50;;;15.70;92.00;;;;;;2007258;28;20181;-72
2022/01/22 00:54:16;;;;;;;4.07;2.10;;;15.70;92.00;;;;;;2000046;28;20181;-73
2022/01/22 00:55:15;;;;;;;4.30;2.60;;;15.70;92.10;;;;;;1999962;28;20181;-73
2022/01/22 00:56:14;;;;;;;3.50;2.63;;;15.80;92.10;;;;;;2000130;28;20181;-73
2022/01/22 00:57:13;;;;;;;4.93;3.10;;;15.80;92.10;;;;;;2000647;28;20258;-72
2022/01/22 00:58:12;;;;;;;3.70;2.67;;;15.80;92.20;;;;;;2000517;28;20205;-73
2022/01/22 00:59:10;;;;;;;4.67;2.77;;;15.80;92.20;;;;;;2004576;28;20165;-72
2022/01/22 01:00:12;;;;;;;3.50;2.70;;;15.80;92.40;;;;;;2005334;28;20497;-73
2022/01/22 01:01:10;;;;;;;2.88;2.25;;;15.70;92.20;;;;;;2003575;28;20166;-73
2022/01/22 01:02:09;;;;;;;3.20;2.57;;;15.80;92.40;;;;;;2002269;28;20174;-72
2022/01/22 01:03:07;;;;;;;2.57;2.33;;;15.70;92.40;;;;;;2005537;28;20174;-72
2022/01/22 01:04:09;;;;;;;3.37;2.53;;;15.70;92.40;;;;;;2003911;28;20174;-73
2022/01/22 01:05:10;;;;;;;5.03;2.40;;;15.70;92.50;;;;;;2002948;28;20401;-74
2022/01/22 01:06:10;;;;;;;5.30;2.85;;;15.80;92.40;;;;;;2001117;28;20197;-74
2022/01/22 01:07:09;;;;;;;3.22;2.67;;;15.70;92.40;;;;;;2001730;28;20197;-74
2022/01/22 01:08:07;;;;;;;3.77;2.50;;;15.80;92.80;;;;;;2003186;28;20201;-73
2022/01/22 01:09:08;;;;;;;3.83;2.60;;;15.80;93.00;;;;;;2003185;28;20231;-73
2022/01/22 01:10:09;;;;;;;3.90;2.58;;;15.70;92.80;;;;;;2000722;28;20523;-73
2022/01/22 01:11:10;;;;;;;5.35;2.80;;;15.70;92.80;;;;;;1997461;28;20257;-73
2022/01/22 01:12:11;;;;;;;3.88;2.40;;;15.70;92.90;;;;;;1998144;28;20204;-72
2022/01/22 01:13:13;;;;;;;4.28;2.38;;;15.60;92.90;;;;;;2005416;28;20191;-74
2022/01/22 01:14:17;;;;;;;3.30;2.30;;;15.60;93.10;;;;;;2005155;28;20173;-73
2022/01/22 01:15:36;;;;;;;4.72;3.30;;;15.60;93.30;;;;;;2000911;28;20170;-73
2022/01/22 01:33:14;;;;;;;4.20;2.55;;;15.70;91.60;;;;;;2004055;28;20154;-73
2022/01/22 01:34:15;;;;;;;5.57;2.60;;;15.60;91.60;;;;;;2003674;28;20233;-73
2022/01/22 01:35:14;;;;;;;5.35;2.60;;;15.70;91.60;;;;;;2003073;28;20357;-73
2022/01/22 01:36:14;;;;;;;2.93;2.60;;;15.60;91.50;;;;;;2002970;28;20347;-73
2022/01/22 01:37:15;;;;;;;4.13;2.50;;;15.60;91.40;;;;;;2002657;28;20197;-73
2022/01/22 01:38:19;;;;;;;3.10;2.30;;;15.60;91.40;;;;;;2003004;28;20229;-73
2022/01/22 01:39:27;;;;;;;3.30;2.40;;;15.70;91.50;;;;;;2002276;28;20178;-73
2022/01/22 01:40:27;;;;;;;3.97;2.20;;;15.70;91.40;;;;;;1992082;28;20167;-72
2022/01/22 01:42:43;;;;;;;4.30;2.40;;;15.70;91.40;;;;;;1999396;28;20197;-73
2022/01/22 01:43:41;;;;;;;3.38;2.30;;;15.70;91.40;;;;;;2000723;28;20149;-73
2022/01/22 01:44:40;;;;;;;3.10;2.60;;;15.70;91.30;;;;;;1999828;28;20213;-73
2022/01/22 01:45:39;;;;;;;4.38;2.78;;;15.70;91.40;;;;;;2003783;28;20201;-73
2022/01/22 01:46:46;;;;;;;4.97;2.97;;;15.70;91.30;;;;;;2006069;28;20201;-73
2022/01/22 01:47:49;;;;;;;7.32;3.40;;;15.70;91.30;;;;;;2006329;28;20166;-73
2022/01/22 01:48:49;;;;;;;2.78;2.20;;;15.70;91.40;;;;;;2006752;28;20246;-72
2022/01/22 01:49:47;;;;;;;4.63;2.67;;;15.70;91.40;;;;;;2007088;28;20174;-72
2022/01/22 01:50:46;;;;;;;4.70;2.93;;;15.70;91.40;;;;;;2006968;28;20193;-74
2022/01/22 01:51:46;;;;;;;3.27;2.30;;;15.70;91.40;;;;;;2006972;28;20232;-71
2022/01/22 01:53:02;;;;;;;5.15;2.45;;;15.70;91.40;;;;;;2006809;28;20176;-72
2022/01/22 01:54:13;;;;;;;3.58;2.47;;;15.70;91.40;;;;;;2007212;28;20186;-71
2022/01/22 01:55:17;;;;;;;4.18;2.22;;;15.70;91.40;;;;;;2007508;28;20142;-72
2022/01/22 01:57:38;;;;;;;3.70;2.90;;;15.70;91.40;;;;;;2007612;28;20142;-72
2022/01/22 01:58:37;;;;;;;3.28;2.38;;;15.60;91.40;;;;;;2007103;28;20229;-73
2022/01/22 01:59:35;;;;;;;4.70;3.10;;;15.70;91.40;;;;;;2007477;28;20165;-72
2022/01/22 02:00:34;;;;;;;3.07;2.20;;;15.70;91.40;;;;;;2007470;28;20245;-73
2022/01/22 02:01:33;;;;;;;7.00;2.47;;;15.70;91.40;;;;;;2007508;28;20170;-72
2022/01/22 02:02:33;;;;;;;5.07;2.63;;;15.70;91.40;;;;;;2007413;28;20451;-74
2022/01/22 02:03:33;;;;;;;4.07;2.30;;;15.70;91.50;;;;;;2006695;28;20208;-70
2022/01/22 02:04:32;;;;;;;2.97;2.47;;;15.60;91.40;;;;;;2006982;28;20177;-73
2022/01/22 02:05:32;;;;;;;3.87;2.37;;;15.70;91.40;;;;;;2007432;28;20181;-73
2022/01/22 02:06:31;;;;;;;2.95;2.28;;;15.60;91.40;;;;;;2006868;28;20194;-73
2022/01/22 02:07:29;;;;;;;4.10;2.60;;;15.70;91.50;;;;;;2007144;28;20344;-72
2022/01/22 02:08:28;;;;;;;3.43;2.67;;;15.70;91.50;;;;;;2007575;28;20209;-71
2022/01/22 02:09:26;;;;;;;3.57;2.60;;;15.70;91.50;;;;;;2004437;28;20182;-73
2022/01/22 02:10:28;;;;;;;3.67;2.87;;;15.70;91.50;;;;;;2001071;28;20170;-73
2022/01/22 02:11:28;;;;;;;3.40;2.55;;;15.70;91.50;;;;;;2000909;28;20419;-71
2022/01/22 02:14:02;;;;;;;3.35;2.70;;;15.70;91.50;;;;;;2000845;28;20170;-72
2022/01/22 02:24:31;;;;;;;3.97;3.00;;;15.60;91.60;;;;;;2006494;28;20158;-73
2022/01/22 02:25:32;;;;;;;2.70;2.45;;;15.70;91.60;;;;;;2006826;28;20237;-73
2022/01/22 02:26:30;;;;;;;5.07;2.58;;;15.70;91.60;;;;;;2005732;28;20197;-72
2022/01/22 02:27:29;;;;;;;4.10;3.03;;;15.70;91.60;;;;;;2005817;28;20213;-73
2022/01/22 02:28:28;;;;;;;2.60;2.40;;;15.60;91.60;;;;;;2006735;28;20185;-73
2022/01/22 02:29:26;;;;;;;3.60;2.90;;;15.70;91.70;;;;;;2006780;28;20404;-73
2022/01/22 02:30:29;;;;;;;4.00;2.80;;;15.70;91.60;;;;;;2006267;28;20169;-73
2022/01/22 02:31:38;;;;;;;3.85;3.00;;;15.60;91.60;;;;;;2006501;28;20142;-74
2022/01/22 02:33:04;;;;;;;4.00;2.50;;;15.70;91.60;;;;;;2005852;28;20154;-74
2022/01/22 02:34:23;;;;;;;3.38;2.53;;;15.60;91.50;;;;;;2006568;28;20165;-74
2022/01/22 02:35:29;;;;;;;3.10;2.70;;;15.60;91.60;;;;;;2006472;28;20237;-73
2022/01/22 02:37:17;;;;;;;4.07;2.90;;;15.60;91.50;;;;;;2006460;28;20220;-74
2022/01/22 02:37:55;;;;;;;4.18;2.75;;;15.60;91.60;;;;;;2005147;28;20182;-74
2022/01/22 02:40:12;;;;;;;3.55;2.85;;;15.60;91.50;;;;;;2006574;28;20162;-73
2022/01/22 02:41:16;;;;;;;5.03;3.15;;;15.70;91.50;;;;;;2006964;28;20146;-73
2022/01/22 02:42:14;;;;;;;8.40;3.28;;;15.60;91.50;;;;;;2007186;28;20245;-73
2022/01/22 02:43:14;;;;;;;4.07;2.70;;;15.60;91.50;;;;;;2006588;28;20185;-73
2022/01/22 02:44:21;;;;;;;3.63;2.40;;;15.70;91.50;;;;;;2006944;28;20170;-73
2022/01/22 02:45:23;;;;;;;4.68;2.75;;;15.70;91.50;;;;;;2007154;28;20158;-73
2022/01/22 02:46:25;;;;;;;5.07;2.92;;;15.70;91.50;;;;;;2006596;28;20748;-72
2022/01/22 02:47:23;;;;;;;4.40;2.80;;;15.70;91.50;;;;;;2006938;28;20188;-74
2022/01/22 02:48:22;;;;;;;2.77;2.37;;;15.70;91.50;;;;;;2006180;28;20174;-73
2022/01/22 02:49:22;;;;;;;4.80;3.07;;;15.70;91.50;;;;;;2006366;28;20195;-74
2022/01/22 02:50:22;;;;;;;3.28;2.80;;;15.70;91.60;;;;;;2006775;28;20165;-73
2022/01/22 02:51:25;;;;;;;2.85;2.50;;;15.70;91.50;;;;;;2006614;28;20170;-73
2022/01/22 02:52:24;;;;;;;3.67;2.35;;;15.70;91.50;;;;;;2006782;28;20170;-73
2022/01/22 02:53:23;;;;;;;3.20;2.70;;;15.70;91.50;;;;;;2006366;28;20249;-73
2022/01/22 02:54:21;;;;;;;5.43;2.87;;;15.70;91.50;;;;;;2006880;28;20189;-73
2022/01/22 02:55:20;;;;;;;3.20;2.60;;;15.70;91.50;;;;;;2006331;28;20201;-74
2022/01/22 02:56:19;;;;;;;3.90;3.07;;;15.70;91.40;;;;;;2006539;28;20240;-74
2022/01/22 02:57:17;;;;;;;4.73;3.13;;;15.70;91.50;;;;;;2004938;28;20201;-74
2022/01/22 02:58:16;;;;;;;4.83;2.93;;;15.70;91.50;;;;;;2006085;28;20463;-73
2022/01/22 02:59:21;;;;;;;5.30;2.97;;;15.70;91.50;;;;;;2005846;28;20178;-73
2022/01/22 03:00:22;;;;;;;5.30;3.53;;;15.70;91.50;;;;;;2006722;28;20211;-73
2022/01/22 03:01:21;;;;;;;4.20;3.15;;;15.70;91.50;;;;;;2006646;28;20181;-73
2022/01/22 03:02:20;;;;;;;3.42;2.55;;;15.70;91.40;;;;;;2006643;28;20208;-73
2022/01/22 03:03:20;;;;;;;6.57;2.70;;;15.70;91.40;;;;;;2006839;28;20189;-74
2022/01/22 03:04:19;;;;;;;3.85;2.67;;;15.70;91.40;;;;;;2007177;28;20413;-73
2022/01/22 03:05:19;;;;;;;3.50;2.60;;;15.70;91.40;;;;;;2007176;28;20189;-73
2022/01/22 03:06:18;;;;;;;3.38;2.78;;;15.70;91.50;;;;;;2007162;28;20178;-73
2022/01/22 03:07:16;;;;;;;4.80;3.10;;;15.70;91.40;;;;;;2006814;28;20178;-73
2022/01/22 03:08:15;;;;;;;4.90;3.33;;;15.80;91.50;;;;;;2007094;28;20173;-73
2022/01/22 03:09:16;;;;;;;3.72;2.33;;;15.70;91.40;;;;;;2006979;28;20554;-72
2022/01/22 03:10:18;;;;;;;4.65;3.20;;;15.70;91.40;;;;;;2006679;28;20201;-73
2022/01/22 03:11:24;;;;;;;3.90;2.83;;;15.70;91.40;;;;;;2006934;28;20164;-73
2022/01/22 03:14:14;;;;;;;3.50;3.10;;;15.80;91.50;;;;;;2007016;28;20167;-73
2022/01/22 03:15:32;;;;;;;3.55;2.85;;;15.80;91.50;;;;;;2006965;28;20208;-73
2022/01/22 03:16:46;;;;;;;8.25;3.40;;;15.70;91.40;;;;;;2006922;28;20213;-72
2022/01/22 03:18:54;;;;;;;3.30;2.65;;;15.80;91.50;;;;;;2007116;28;20197;-73
2022/01/22 03:21:29;;;;;;;5.93;3.03;;;15.80;91.50;;;;;;2006152;28;20192;-74
2022/01/22 03:27:31;;;;;;;3.55;2.75;;;15.80;91.50;;;;;;2003909;28;20169;-73
2022/01/22 03:28:40;;;;;;;5.28;3.00;;;15.80;91.50;;;;;;2005433;28;20157;-74
2022/01/22 03:29:41;;;;;;;3.63;2.80;;;15.80;91.50;;;;;;2005563;28;20182;-74
2022/01/22 03:30:39;;;;;;;5.40;2.75;;;15.80;91.50;;;;;;2005864;28;20166;-74
2022/01/22 03:31:38;;;;;;;4.00;2.60;;;15.80;91.40;;;;;;2004980;28;20170;-73
2022/01/22 03:32:49;;;;;;;4.70;3.13;;;15.80;91.40;;;;;;2005416;28;20166;-74
2022/01/22 03:33:48;;;;;;;4.65;3.20;;;15.80;91.40;;;;;;2005477;28;20396;-73
2022/01/22 03:36:19;;;;;;;3.97;2.65;;;15.80;91.50;;;;;;2000572;28;20646;-74
2022/01/22 03:37:18;;;;;;;3.45;2.92;;;15.90;91.50;;;;;;2005511;28;20176;-73
2022/01/22 03:38:17;;;;;;;5.55;2.67;;;15.80;91.40;;;;;;2005349;28;20209;-73
2022/01/22 03:39:15;;;;;;;4.00;3.30;;;15.90;91.50;;;;;;2004846;28;20182;-73
2022/01/22 03:40:14;;;;;;;6.87;3.70;;;15.90;91.50;;;;;;2005515;28;20174;-73
2022/01/22 03:41:13;;;;;;;6.25;3.45;;;15.90;91.50;;;;;;2005394;28;20181;-74
2022/01/22 03:42:12;;;;;;;4.20;2.87;;;15.90;91.50;;;;;;2006281;28;20201;-72
2022/01/22 03:43:10;;;;;;;3.40;3.10;;;15.90;91.50;;;;;;2005636;28;20441;-73
2022/01/22 03:44:11;;;;;;;4.50;2.70;;;15.90;91.50;;;;;;2005565;28;20177;-73
2022/01/22 03:45:11;;;;;;;3.03;2.70;;;15.90;91.60;;;;;;2006555;28;20187;-74
2022/01/22 03:46:10;;;;;;;4.13;3.10;;;15.90;91.50;;;;;;2006600;28;20162;-73
2022/01/22 03:47:08;;;;;;;4.63;2.80;;;15.90;91.50;;;;;;2005735;28;20181;-73
2022/01/22 03:48:07;;;;;;;4.33;3.07;;;15.90;91.50;;;;;;2005663;28;20176;-73
2022/01/22 03:49:05;;;;;;;4.00;2.50;;;15.90;91.50;;;;;;2006008;28;20177;-74
2022/01/22 03:50:04;;;;;;;4.50;2.97;;;15.90;91.50;;;;;;2006119;28;20221;-74
2022/01/22 03:51:03;;;;;;;6.32;3.30;;;15.90;91.60;;;;;;2006175;28;20181;-73
2022/01/22 03:52:02;;;;;;;7.63;3.27;;;15.90;91.60;;;;;;2005851;28;20188;-74
2022/01/22 03:53:01;;;;;;;3.75;3.20;;;15.90;91.50;;;;;;2004821;28;20497;-73
2022/01/22 03:53:59;;;;;;;4.20;3.00;;;15.90;91.60;;;;;;2005944;28;20193;-73
2022/01/22 03:54:58;;;;;;;3.50;2.50;;;15.90;91.50;;;;;;2006025;28;20197;-73
2022/01/22 03:56:03;;;;;;;4.40;3.07;;;15.90;91.70;;;;;;2005390;28;20252;-74
2022/01/22 03:57:02;;;;;;;4.07;2.78;;;15.80;91.70;;;;;;2005788;28;20182;-74
2022/01/22 03:58:02;;;;;;;6.00;3.25;;;15.80;91.70;;;;;;2006388;28;20235;-72
2022/01/22 03:59:02;;;;;;;7.70;3.22;;;15.80;91.70;;;;;;2005629;28;20170;-71
2022/01/22 04:00:01;;;;;;;4.95;3.10;;;15.80;91.70;;;;;;2005405;28;20499;-73
2022/01/22 04:03:24;;;;;;;5.13;2.97;;;15.70;91.80;;;;;;2006424;28;20146;-73
2022/01/22 04:03:35;;;;;;;3.90;2.65;;;15.70;91.80;;;;;;2002673;28;20197;-72
2022/01/22 04:04:38;;;;;;;4.70;2.78;;;15.70;91.90;;;;;;2006772;28;20234;-72
2022/01/22 04:05:47;;;;;;;5.25;3.35;;;15.60;92.00;;;;;;2006551;28;20189;-72
2022/01/22 04:07:20;;;;;;;4.15;3.20;;;15.60;92.00;;;;;;2006690;28;20185;-73
2022/01/22 04:08:15;;;;;;;4.63;2.30;;;15.70;92.10;;;;;;2006749;28;20187;-73
2022/01/22 04:09:16;;;;;;;5.03;2.95;;;15.60;92.00;;;;;;2006814;28;20158;-72
2022/01/22 04:10:15;;;;;;;3.88;2.95;;;15.60;92.10;;;;;;2006691;28;20174;-72
2022/01/22 04:11:15;;;;;;;3.47;2.73;;;15.60;92.10;;;;;;2006353;28;20177;-72
2022/01/22 04:12:19;;;;;;;5.25;3.20;;;15.60;92.20;;;;;;1997895;28;20229;-72
2022/01/22 04:13:21;;;;;;;3.33;2.50;;;15.60;92.20;;;;;;2006323;28;20157;-72
2022/01/22 04:14:24;;;;;;;7.63;3.00;;;15.70;92.20;;;;;;2006606;28;20174;-73
2022/01/22 04:15:26;;;;;;;3.50;2.80;;;15.70;92.20;;;;;;2006477;28;20162;-73
2022/01/22 04:16:25;;;;;;;5.55;3.13;;;15.70;92.20;;;;;;2006368;28;20254;-71
2022/01/22 04:24:57;;;;;;;7.25;2.75;;;15.70;92.90;;;;;;2005928;28;20154;-72
2022/01/22 04:26:11;;;;;;;3.23;2.90;;;15.70;92.90;;;;;;2005760;28;20161;-72
2022/01/22 04:27:12;;;;;;;3.83;2.40;;;15.70;92.90;;;;;;2005753;28;20405;-72
2022/01/22 04:28:12;;;;;;;6.93;3.95;;;15.70;92.90;;;;;;1998689;28;20178;-72
2022/01/22 04:29:11;;;;;;;5.50;3.35;;;15.70;92.90;;;;;;1998759;28;20188;-71
2022/01/22 04:30:10;;;;;;;3.27;2.70;;;15.70;92.90;;;;;;2006675;28;20176;-71
2022/01/22 04:31:10;;;;;;;3.47;2.50;;;15.70;93.00;;;;;;2006578;28;20542;-72
2022/01/22 04:32:08;;;;;;;6.05;3.03;;;15.70;93.00;;;;;;2006064;28;20174;-73
2022/01/22 04:33:07;;;;;;;3.47;2.47;;;15.70;93.10;;;;;;2006738;28;20193;-72
2022/01/22 04:34:07;;;;;;;5.17;3.10;;;15.80;93.10;;;;;;2005911;28;20186;-72
2022/01/22 04:35:05;;;;;;;5.57;3.00;;;15.70;93.10;;;;;;2002919;28;20309;-73
2022/01/22 04:36:04;;;;;;;4.17;3.10;;;15.70;93.10;;;;;;2000392;28;20174;-73
2022/01/22 04:37:03;;;;;;;4.40;2.63;;;15.70;93.20;;;;;;2000343;28;20441;-73
2022/01/22 04:38:02;;;;;;;4.10;2.77;;;15.70;93.10;;;;;;2001368;28;20417;-73
2022/01/22 04:39:00;;;;;;;3.83;2.60;;;15.70;93.20;;;;;;2004005;28;20229;-73
2022/01/22 04:40:00;;;;;;;4.93;3.03;;;15.80;93.20;;;;;;2003858;28;20181;-73
2022/01/22 04:40:59;;;;;;;4.45;3.05;;;15.70;93.10;;;;;;1996402;28;20685;-73
2022/01/22 04:41:59;;;;;;;4.65;2.65;;;15.80;93.20;;;;;;2002171;28;20180;-72
2022/01/22 04:43:00;;;;;;;3.10;2.50;;;15.70;93.20;;;;;;2002161;28;20241;-73
2022/01/22 04:44:02;;;;;;;4.13;2.72;;;15.80;93.20;;;;;;2000633;28;20261;-73
2022/01/22 04:45:17;;;;;;;4.35;2.90;;;15.70;93.30;;;;;;2000560;28;20500;-73
2022/01/22 04:46:24;;;;;;;4.90;3.38;;;15.70;93.20;;;;;;1999392;28;20560;-73
2022/01/22 04:49:06;;;;;;;4.15;2.75;;;15.80;93.30;;;;;;1998849;28;20257;-72
2022/01/22 04:54:58;;;;;;;3.80;2.65;;;15.70;93.20;;;;;;1998251;28;20194;-73
2022/01/22 04:55:21;;;;;;;4.70;3.20;;;15.70;93.10;;;;;;2000934;28;20165;-73
2022/01/22 04:56:19;;;;;;;2.92;2.53;;;15.70;93.10;;;;;;1998463;28;20700;-73
2022/01/22 04:57:18;;;;;;;3.37;2.60;;;15.70;93.10;;;;;;1998598;28;20282;-74
2022/01/22 04:58:17;;;;;;;4.03;2.90;;;15.70;93.10;;;;;;1998258;28;20209;-74
2022/01/22 04:59:16;;;;;;;6.43;2.20;;;15.70;93.20;;;;;;1998549;28;20410;-73
2022/01/22 05:00:17;;;;;;;4.50;3.17;;;15.70;93.10;;;;;;1997916;28;20700;-73
2022/01/22 05:01:15;;;;;;;3.53;2.22;;;15.70;93.20;;;;;;1996935;28;20541;-73
2022/01/22 05:02:14;;;;;;;5.97;3.43;;;15.80;93.10;;;;;;1989850;28;20181;-73
2022/01/22 05:03:15;;;;;;;3.97;2.70;;;15.80;93.20;;;;;;1996698;28;20273;-73
2022/01/22 05:04:13;;;;;;;4.13;3.03;;;15.90;93.20;;;;;;2005045;28;20612;-72
2022/01/22 05:05:12;;;;;;;4.97;2.97;;;15.80;93.10;;;;;;1997851;28;20273;-72
2022/01/22 05:06:10;;;;;;;8.20;3.50;;;15.80;93.20;;;;;;1997658;28;20180;-73
2022/01/22 05:07:09;;;;;;;4.37;2.97;;;15.80;93.20;;;;;;1997861;28;20170;-72
2022/01/22 05:08:08;;;;;;;4.00;2.95;;;15.80;93.20;;;;;;1997473;28;20189;-73
2022/01/22 05:09:06;;;;;;;4.67;2.67;;;15.80;93.20;;;;;;1997376;28;20205;-73
2022/01/22 05:10:08;;;;;;;4.47;3.10;;;15.80;93.20;;;;;;1998213;28;20189;-73
2022/01/22 05:11:08;;;;;;;4.97;2.85;;;15.80;93.20;;;;;;1997912;28;20170;-73
2022/01/22 05:12:07;;;;;;;3.20;2.65;;;15.80;93.20;;;;;;1997357;28;20538;-73
2022/01/22 05:13:06;;;;;;;4.30;3.40;;;15.80;93.30;;;;;;1997399;28;20613;-73
2022/01/22 05:14:04;;;;;;;4.63;3.33;;;15.80;93.40;;;;;;1997734;28;20178;-73
2022/01/22 05:15:04;;;;;;;5.67;3.20;;;15.80;93.40;;;;;;1996839;28;20177;-73
2022/01/22 05:16:03;;;;;;;3.60;2.70;;;15.80;93.40;;;;;;1996941;28;20649;-73
2022/01/22 05:17:05;;;;;;;4.50;3.00;;;15.80;93.40;;;;;;1997134;28;20200;-72
2022/01/22 05:18:07;;;;;;;3.65;2.60;;;15.80;94.20;;;;;;1997361;28;20203;-73
2022/01/22 05:19:13;;;;;;;4.07;3.08;;;15.80;92.70;;;;;;1997062;28;20216;-73
2022/01/22 05:20:23;;;;;;;3.65;2.85;;;15.80;92.70;;;;;;1997040;28;20233;-73
2022/01/22 05:21:23;;;;;;;3.25;2.40;;;15.80;92.50;;;;;;1997545;28;20665;-74
2022/01/22 05:22:41;;;;;;;2.90;2.45;;;15.80;92.50;;;;;;1998502;28;20181;-74
2022/01/22 05:23:41;;;;;;;3.67;3.20;;;15.80;92.20;;;;;;2001667;28;20164;-72
2022/01/22 05:24:44;;;;;;;4.50;3.13;;;15.80;92.20;;;;;;2000652;28;20176;-74
2022/01/22 05:25:49;;;;;;;4.07;2.70;;;15.80;92.10;;;;;;2000270;28;20150;-74
2022/01/22 05:28:20;;;;;;;3.97;2.90;;;15.80;91.90;;;;;;2005559;28;20165;-73
2022/01/22 05:30:53;;;;;;;3.55;2.72;;;15.80;92.00;;;;;;1997178;28;20241;-74
2022/01/22 05:32:20;;;;;;;3.83;2.92;;;15.80;91.90;;;;;;1997032;28;20570;-73
2022/01/22 05:37:49;;;;;;;3.78;2.80;;;15.80;91.90;;;;;;1996338;28;20158;-74
2022/01/22 05:38:47;;;;;;;4.93;3.10;;;15.80;92.00;;;;;;1996015;28;20280;-74
2022/01/22 05:39:46;;;;;;;3.17;2.87;;;15.80;92.10;;;;;;1988520;28;20252;-74
2022/01/22 05:40:44;;;;;;;3.80;3.00;;;15.80;92.00;;;;;;1990093;28;20167;-74
2022/01/22 05:41:43;;;;;;;3.20;2.60;;;15.80;92.00;;;;;;1996718;28;20260;-74
2022/01/22 05:42:43;;;;;;;3.30;2.50;;;15.80;91.90;;;;;;1989163;28;20393;-74
2022/01/22 05:43:41;;;;;;;4.47;3.33;;;15.80;91.90;;;;;;1988512;28;20186;-74
2022/01/22 05:44:41;;;;;;;5.73;3.10;;;15.90;92.00;;;;;;1995423;28;20227;-74
2022/01/22 05:45:40;;;;;;;5.13;3.42;;;15.80;92.00;;;;;;1995865;28;20296;-73
2022/01/22 05:46:39;;;;;;;4.20;3.00;;;15.80;91.90;;;;;;1995891;28;20198;-73
2022/01/22 05:47:37;;;;;;;4.30;2.93;;;15.90;92.00;;;;;;1996066;28;20174;-73
2022/01/22 05:48:36;;;;;;;3.90;2.90;;;15.80;92.00;;;;;;1996198;28;20197;-73
2022/01/22 05:49:40;;;;;;;3.33;2.70;;;15.80;92.00;;;;;;1995883;28;20178;-73
2022/01/22 05:50:55;;;;;;;5.40;3.63;;;15.80;92.00;;;;;;1995865;28;20173;-73
2022/01/22 05:51:57;;;;;;;4.57;2.90;;;15.80;92.10;;;;;;1996047;28;20168;-74
2022/01/22 05:53:01;;;;;;;5.32;3.10;;;15.90;92.10;;;;;;1987986;28;20278;-74
2022/01/22 05:55:40;;;;;;;3.72;2.80;;;15.80;91.90;;;;;;1989679;28;20158;-73
2022/01/22 06:00:24;;;;;;;5.93;3.65;;;15.80;92.20;;;;;;1995822;28;20150;-74
2022/01/22 06:01:23;;;;;;;4.37;3.30;;;15.80;92.40;;;;;;1995857;28;20505;-72
2022/01/22 06:02:22;;;;;;;5.30;2.80;;;15.90;92.30;;;;;;1995801;28;20181;-73
2022/01/22 06:03:20;;;;;;;3.17;2.63;;;15.90;92.50;;;;;;1995826;28;20467;-73
2022/01/22 06:04:19;;;;;;;4.97;3.13;;;15.80;92.30;;;;;;1995806;28;20250;-73
2022/01/22 06:05:18;;;;;;;4.03;2.77;;;15.80;92.40;;;;;;1995246;28;20673;-73
2022/01/22 06:06:17;;;;;;;4.20;2.72;;;15.80;92.40;;;;;;1995935;28;20245;-74
2022/01/22 06:07:15;;;;;;;4.63;3.10;;;15.80;92.50;;;;;;1996653;28;20254;-73
2022/01/22 06:08:16;;;;;;;5.20;3.50;;;15.90;92.70;;;;;;1996594;28;20643;-73
2022/01/22 06:09:15;;;;;;;3.58;3.00;;;15.90;92.50;;;;;;1996707;28;20166;-74
2022/01/22 06:10:17;;;;;;;3.90;2.60;;;15.70;92.30;;;;;;1996621;28;20645;-74
2022/01/22 06:11:22;;;;;;;4.03;2.42;;;15.90;92.70;;;;;;1996456;28;20170;-74
2022/01/22 06:12:40;;;;;;;5.95;3.30;;;15.90;92.60;;;;;;1997958;28;20716;-73
2022/01/22 06:13:45;;;;;;;4.32;2.70;;;15.90;92.40;;;;;;1997516;28;20545;-74
2022/01/22 06:14:43;;;;;;;3.25;2.95;;;15.90;92.60;;;;;;1997637;28;20162;-74
2022/01/22 06:15:43;;;;;;;7.60;3.30;;;15.90;92.60;;;;;;1998005;28;20249;-74
2022/01/22 06:16:42;;;;;;;3.55;3.05;;;15.90;92.50;;;;;;1997953;28;20201;-73
2022/01/22 06:17:40;;;;;;;3.90;2.83;;;15.90;92.90;;;;;;1998214;28;20181;-74
2022/01/22 06:18:39;;;;;;;3.93;3.00;;;15.90;93.00;;;;;;1998012;28;20205;-74
2022/01/22 06:19:38;;;;;;;4.77;3.47;;;15.90;92.90;;;;;;1997448;28;20220;-73
2022/01/22 06:20:36;;;;;;;5.37;3.03;;;16.00;93.20;;;;;;1997394;28;20170;-74
2022/01/22 06:21:35;;;;;;;7.03;2.77;;;15.90;93.20;;;;;;1998170;28;20176;-74
2022/01/22 06:22:34;;;;;;;4.93;3.37;;;15.90;93.20;;;;;;1997840;28;20413;-73
2022/01/22 06:23:32;;;;;;;3.23;2.67;;;15.90;92.90;;;;;;1997935;28;20176;-74
2022/01/22 06:24:31;;;;;;;7.67;3.17;;;15.90;93.20;;;;;;1997898;28;20178;-74
2022/01/22 06:25:30;;;;;;;6.50;3.43;;;;;;;;;;1997807;28;20170;-74
2022/01/22 06:26:28;;;;;;;4.47;3.05;;;15.90;94.00;;;;;;1997161;28;20718;-74
2022/01/22 06:27:27;;;;;;;4.37;3.40;;;16.00;93.30;;;;;;1997592;28;20247;-74
2022/01/22 06:28:29;;;;;;;4.10;3.10;;;16.00;93.10;;;;;;1997982;28;20228;-74
2022/01/22 06:29:28;;;;;;;5.15;2.92;;;16.00;93.20;;;;;;1997930;28;20189;-74